Terminal Aerodrome Forecast
Issued by NWS

Home | Current Version | Previous Version | Text Only | Print | Product List | Glossary On
Versions: 1 2 3 4 5 6 7 8 9 10 11 12 13 14 15 16 17 18 19 20 21 22 23 24 25 26 27 28 29 30 31 32 33 34 35 36 37 38 39 40 41 42 43 44
000
FTAK31 PANC 011121
TAFACD
TAF
PACD 011121Z 0112/0212 15028G38KT 5SM -RA BR SCT006 OVC021
      TEMPO 0112/0114 3SM -RA BR BKN006 OVC012
     FM011400 19024G32KT 6SM -SHRA BR BKN012 OVC025
     FM011700 24024G34KT 6SM -SHRA SCT012 OVC025
     FM011900 27028G36KT 6SM -SHRA BR SCT012 OVC025
     FM020500 28017G25KT P6SM -SHRA BKN025=

USA.gov is the U.S. government's official web portal to all federal, state and local government web resources and services.